アティラウ の空港の天気 - METARとTAF

Atyrau Airport ( UATG / GUW ) - カザフスタン Atyrau
飛行場実況気象(Metar)
観測時間02/28 05:30 +05 (02/28 00:30 UTC)
風向・風速南西 3m/s
視程5000m
天気現象弱いしゅう雪 もや
全天の8割程度の雲 雲底高度 340m
全天を覆う雲 雲底高度 1010m
気温0℃
湿度86%
気圧1026hPa
METARUATG 280030Z 23003MPS 5000 -SHSN BR BKN011 OVC033CB M00/M02 Q1026 R14/CLRD70 NOSIG RMK QFE771/1029
過去の天気等 Google飛行場航空写真 Wunderground天気予報

過去48時間のMETAR

飛行場予報(TAF)
発表時間: 2/28 04:01 +05 (2/27 23:01 UTC)
予報対象時間: 28日5時 +05 ~ 1日5時 +05
風向・風速南南西 5m/s
視程3,000m
天気現象もや
全天を覆う積乱雲 雲底高度 300m
28日5時 +05 ~ 28日11時 +05 に一時的に
視程1,500m
天気現象しゅう雨雪
全天の8割程度の雲 雲底高度 150m
TAF UATG 272301Z 2800/2824 20005MPS 3000 BR OVC010CB TX04/2811Z TNM03/2802Z
TEMPO 2800/2806 1500 SHRASN BKN005